Time;durP1;ratioP1;P1;durP2;ratioP2;P2;SDS_P1;SDS_P2;PMS_P1;PMS_P2;Temp;Humidity;BMP_temperature;BMP_pressure;BME280_temperature;BME280_humidity;BME280_pressure;Samples;Min_cycle;Max_cycle;Signal;HPM_P1;HPM_P2
2022/08/21 00:00:57;;;;;;;7.25;4.13;;;17.80;78.10;;;;;;4951001;28;20485;-80
2022/08/21 00:03:23;;;;;;;7.05;3.53;;;17.80;78.90;;;;;;4954167;28;20540;-80
2022/08/21 00:05:50;;;;;;;6.10;3.58;;;17.90;79.60;;;;;;4963464;28;20030;-81
2022/08/21 00:08:18;;;;;;;4.43;3.50;;;18.10;80.40;;;;;;4985872;28;22557;-80
2022/08/21 00:10:44;;;;;;;5.43;3.38;;;18.00;79.50;;;;;;4963693;28;20436;-81
2022/08/21 00:13:10;;;;;;;6.38;4.00;;;17.80;80.40;;;;;;4979183;28;20034;-80
2022/08/21 00:15:36;;;;;;;6.75;3.30;;;17.70;80.50;;;;;;4967807;28;20030;-80
2022/08/21 00:18:02;;;;;;;6.78;4.10;;;17.70;79.90;;;;;;4973039;28;20069;-80
2022/08/21 00:20:28;;;;;;;5.22;3.83;;;17.60;79.40;;;;;;4975326;28;20113;-80
2022/08/21 00:22:53;;;;;;;7.93;3.95;;;17.60;79.70;;;;;;4988604;28;20033;-80
2022/08/21 00:25:19;;;;;;;5.65;3.42;;;17.60;80.10;;;;;;4959676;28;20026;-80
2022/08/21 00:27:47;;;;;;;11.00;5.28;;;17.50;80.90;;;;;;4977975;28;20040;-80
2022/08/21 00:30:14;;;;;;;6.05;3.75;;;17.40;80.60;;;;;;4974079;28;20558;-81
2022/08/21 00:32:39;;;;;;;10.77;5.65;;;17.30;81.20;;;;;;4988852;28;20116;-80
2022/08/21 00:35:07;;;;;;;5.65;4.22;;;17.20;80.50;;;;;;4959938;28;20125;-80
2022/08/21 00:37:33;;;;;;;3.58;3.17;;;17.10;80.00;;;;;;4958986;28;20413;-81
2022/08/21 00:39:58;;;;;;;5.90;4.25;;;17.10;80.10;;;;;;4948301;28;20061;-80
2022/08/21 00:42:24;;;;;;;7.50;4.95;;;17.10;81.00;;;;;;4989625;28;20543;-80
2022/08/21 00:44:50;;;;;;;7.70;4.30;;;17.00;80.30;;;;;;4959945;28;20068;-80
2022/08/21 00:47:16;;;;;;;8.15;4.70;;;17.00;83.00;;;;;;4961176;28;20501;-80
2022/08/21 00:49:42;;;;;;;5.70;4.15;;;17.00;82.10;;;;;;4981286;28;20037;-80
2022/08/21 00:52:11;;;;;;;7.63;3.83;;;17.00;83.20;;;;;;4983193;28;20038;-80
2022/08/21 00:54:36;;;;;;;11.85;5.55;;;17.10;82.80;;;;;;4960078;28;20121;-80
2022/08/21 00:57:05;;;;;;;12.15;5.20;;;16.90;82.90;;;;;;4957031;28;20507;-80
2022/08/21 00:59:35;;;;;;;10.10;6.32;;;16.90;82.80;;;;;;4968902;28;20477;-80
2022/08/21 01:02:01;;;;;;;11.35;5.43;;;16.80;82.50;;;;;;4973887;28;20370;-79
2022/08/21 01:04:26;;;;;;;9.48;5.10;;;16.70;82.80;;;;;;4968577;28;20030;-80
2022/08/21 01:06:52;;;;;;;10.00;5.95;;;16.70;83.10;;;;;;4954531;28;20041;-80
2022/08/21 01:09:18;;;;;;;9.13;5.13;;;16.70;83.00;;;;;;4954621;28;20463;-80
2022/08/21 01:11:44;;;;;;;13.15;5.90;;;16.70;83.80;;;;;;4956202;28;20028;-80
2022/08/21 01:14:12;;;;;;;8.43;5.20;;;16.70;83.40;;;;;;4963643;28;20027;-80
2022/08/21 01:16:39;;;;;;;4.10;3.38;;;16.60;84.10;;;;;;4981834;28;20034;-80
2022/08/21 01:19:04;;;;;;;5.82;3.92;;;16.60;84.40;;;;;;4969384;28;20034;-80
2022/08/21 01:21:30;;;;;;;8.75;4.18;;;16.60;84.40;;;;;;4956566;28;20057;-79
2022/08/21 01:23:56;;;;;;;5.70;4.13;;;16.60;85.10;;;;;;4954275;28;20034;-80
2022/08/21 01:26:28;;;;;;;5.85;3.70;;;16.60;86.20;;;;;;4957965;28;20542;-79
2022/08/21 01:29:17;;;;;;;8.65;4.38;;;16.60;85.30;;;;;;4957158;28;20076;-80
2022/08/21 01:31:43;;;;;;;4.80;4.07;;;16.60;86.60;;;;;;4984358;28;20030;-80
2022/08/21 01:34:09;;;;;;;8.85;4.28;;;16.50;86.50;;;;;;4980007;28;20489;-80
2022/08/21 01:36:35;;;;;;;7.65;4.35;;;16.50;86.00;;;;;;4972575;28;20088;-79
2022/08/21 01:39:01;;;;;;;5.57;3.92;;;16.50;85.90;;;;;;4963307;28;20481;-80
2022/08/21 01:41:26;;;;;;;4.90;3.58;;;16.50;86.80;;;;;;4973538;28;20038;-79
2022/08/21 01:43:52;;;;;;;7.28;4.45;;;16.40;86.20;;;;;;4987720;28;20128;-79
2022/08/21 01:46:18;;;;;;;4.55;3.33;;;16.30;86.40;;;;;;4988959;28;20022;-79
2022/08/21 01:48:43;;;;;;;7.88;4.28;;;16.20;87.10;;;;;;4973672;28;20034;-80
2022/08/21 01:51:09;;;;;;;5.85;4.13;;;16.20;88.40;;;;;;4985701;28;20078;-79
2022/08/21 01:53:36;;;;;;;10.35;5.30;;;16.20;89.10;;;;;;4959951;28;20117;-79
2022/08/21 01:56:06;;;;;;;8.15;5.45;;;16.10;92.20;;;;;;4972534;28;20124;-80
2022/08/21 01:58:32;;;;;;;6.78;4.97;;;16.10;92.00;;;;;;4965369;28;20121;-79
2022/08/21 02:00:58;;;;;;;5.13;3.70;;;16.00;90.00;;;;;;4960003;28;20135;-80
2022/08/21 02:03:23;;;;;;;5.28;3.35;;;15.90;90.50;;;;;;4956626;28;20137;-79
2022/08/21 02:05:49;;;;;;;7.00;3.80;;;16.00;90.50;;;;;;4970400;28;20501;-80
2022/08/21 02:08:14;;;;;;;7.28;4.85;;;16.00;90.30;;;;;;4969232;28;20030;-79
2022/08/21 02:10:40;;;;;;;8.95;5.05;;;15.80;90.20;;;;;;4969349;28;20401;-80
2022/08/21 02:13:07;;;;;;;7.60;4.30;;;15.70;91.80;;;;;;4971171;28;20026;-80
2022/08/21 02:15:32;;;;;;;7.13;4.85;;;15.60;90.70;;;;;;4972349;28;20069;-79
2022/08/21 02:17:59;;;;;;;8.98;5.25;;;15.50;91.10;;;;;;4956045;28;20161;-79
2022/08/21 02:20:28;;;;;;;9.32;5.68;;;15.40;91.00;;;;;;4972184;28;20450;-80
2022/08/21 02:22:54;;;;;;;9.20;5.28;;;15.40;91.00;;;;;;4960074;28;20489;-80
2022/08/21 02:25:20;;;;;;;10.32;5.65;;;15.40;91.10;;;;;;4956958;28;20030;-79
2022/08/21 02:27:47;;;;;;;9.15;5.07;;;15.40;91.30;;;;;;4966923;28;20030;-79
2022/08/21 02:30:18;;;;;;;7.18;3.92;;;15.30;91.30;;;;;;4970559;28;20033;-79
2022/08/21 02:32:43;;;;;;;8.80;5.22;;;15.30;91.60;;;;;;4984612;28;20037;-79
2022/08/21 02:35:09;;;;;;;7.63;4.75;;;15.30;91.90;;;;;;4964568;28;20034;-79
2022/08/21 02:37:43;;;;;;;6.70;4.82;;;15.30;92.20;;;;;;4987581;28;20042;-80
2022/08/21 02:40:11;;;;;;;4.97;3.75;;;15.20;92.30;;;;;;4964480;28;20085;-79
2022/08/21 02:42:36;;;;;;;6.22;4.75;;;15.20;92.40;;;;;;4964501;28;20385;-78
2022/08/21 02:45:02;;;;;;;5.90;4.22;;;15.20;92.40;;;;;;4984762;28;20037;-80
2022/08/21 02:47:28;;;;;;;8.43;4.00;;;15.10;92.90;;;;;;4970120;28;20493;-79
2022/08/21 02:49:53;;;;;;;7.60;3.67;;;15.20;93.50;;;;;;4985660;28;20036;-79
2022/08/21 02:52:19;;;;;;;3.58;2.80;;;15.30;93.50;;;;;;4969357;28;20034;-79
2022/08/21 02:54:45;;;;;;;8.52;4.32;;;15.30;93.40;;;;;;4970382;28;20114;-79
2022/08/21 02:57:10;;;;;;;4.85;3.97;;;15.40;94.00;;;;;;4960511;28;20084;-82
2022/08/21 02:59:36;;;;;;;6.80;4.28;;;15.10;93.50;;;;;;4973328;28;20026;-83
2022/08/21 03:02:02;;;;;;;8.73;5.45;;;15.10;93.80;;;;;;4955938;28;20478;-83
2022/08/21 03:04:27;;;;;;;8.90;5.55;;;15.00;93.60;;;;;;4958372;28;20026;-82
2022/08/21 03:06:53;;;;;;;10.00;6.00;;;15.00;93.90;;;;;;4976706;28;20061;-82
2022/08/21 03:09:18;;;;;;;6.85;4.97;;;15.00;94.30;;;;;;4976335;28;20030;-82
2022/08/21 03:11:44;;;;;;;8.95;6.63;;;14.90;94.10;;;;;;4951194;28;20051;-82
2022/08/21 03:14:09;;;;;;;8.55;6.22;;;14.90;95.00;;;;;;4987661;28;20048;-83
2022/08/21 03:16:35;;;;;;;6.53;4.13;;;14.80;94.70;;;;;;4960301;28;20032;-82
2022/08/21 03:19:01;;;;;;;7.70;5.97;;;14.90;94.30;;;;;;4977101;28;20120;-82
2022/08/21 03:21:28;;;;;;;9.77;6.35;;;14.80;94.90;;;;;;4981753;28;20057;-82
2022/08/21 03:23:54;;;;;;;7.60;4.32;;;14.80;94.40;;;;;;4975639;28;20572;-82
2022/08/21 03:26:19;;;;;;;10.27;5.63;;;14.80;94.20;;;;;;4982203;28;20113;-82
2022/08/21 03:28:45;;;;;;;8.35;4.50;;;14.80;94.20;;;;;;4980667;28;20513;-82
2022/08/21 03:31:10;;;;;;;8.30;5.30;;;14.80;94.40;;;;;;4973243;28;20117;-82
2022/08/21 03:33:36;;;;;;;5.93;3.97;;;14.80;94.60;;;;;;4983114;28;20037;-81
2022/08/21 03:36:04;;;;;;;8.43;5.20;;;14.80;94.60;;;;;;4969266;28;20504;-82
2022/08/21 03:38:30;;;;;;;9.70;6.03;;;14.80;94.40;;;;;;4962267;28;20140;-81
2022/08/21 03:40:56;;;;;;;9.93;6.20;;;14.80;96.00;;;;;;4960295;28;20037;-82
2022/08/21 03:43:21;;;;;;;15.75;8.10;;;14.80;94.40;;;;;;4969738;28;20030;-82
2022/08/21 03:45:47;;;;;;;11.05;6.60;;;14.80;94.30;;;;;;4982707;28;20129;-82
2022/08/21 03:48:12;;;;;;;6.57;4.65;;;14.70;94.70;;;;;;4968306;28;20093;-82
2022/08/21 03:50:40;;;;;;;10.85;5.47;;;14.80;94.50;;;;;;4988724;28;20247;-82
2022/08/21 03:53:06;;;;;;;7.53;4.53;;;14.80;94.80;;;;;;4960178;28;20041;-82
2022/08/21 03:55:31;;;;;;;9.77;6.60;;;14.90;94.90;;;;;;4970155;28;20037;-82
2022/08/21 03:57:57;;;;;;;7.88;4.45;;;14.80;96.40;;;;;;4992391;28;20040;-82
2022/08/21 04:00:23;;;;;;;10.15;6.28;;;14.80;94.80;;;;;;4978936;28;20409;-82
2022/08/21 04:02:50;;;;;;;14.70;6.30;;;14.80;96.00;;;;;;4994526;28;20038;-82
2022/08/21 04:05:26;;;;;;;8.15;4.65;;;14.70;94.80;;;;;;4972286;28;20494;-82
2022/08/21 04:07:56;;;;;;;9.27;5.70;;;14.80;95.60;;;;;;4979206;28;20036;-82
2022/08/21 04:10:23;;;;;;;12.23;5.80;;;14.80;96.20;;;;;;4992789;28;20366;-82
2022/08/21 04:12:49;;;;;;;5.57;4.03;;;14.90;96.00;;;;;;4975226;28;20385;-82
2022/08/21 04:15:15;;;;;;;7.25;4.60;;;14.90;96.50;;;;;;4974701;28;20032;-81
2022/08/21 04:17:40;;;;;;;5.88;3.78;;;15.00;96.60;;;;;;4974832;28;20030;-82
2022/08/21 04:20:06;;;;;;;6.30;4.07;;;14.90;96.20;;;;;;4973032;28;20524;-81
2022/08/21 04:22:32;;;;;;;6.65;5.10;;;14.90;96.80;;;;;;4960106;28;20394;-82
2022/08/21 04:24:57;;;;;;;8.00;4.65;;;15.00;97.60;;;;;;4994908;28;20037;-81
2022/08/21 04:27:23;;;;;;;7.10;4.95;;;14.90;96.80;;;;;;4971112;28;20041;-81
2022/08/21 04:29:48;;;;;;;8.00;4.53;;;14.80;96.70;;;;;;4986161;28;20077;-81
2022/08/21 04:32:22;;;;;;;9.30;4.45;;;14.80;98.00;;;;;;4986997;28;20022;-81
2022/08/21 04:34:47;;;;;;;9.40;5.28;;;14.80;97.60;;;;;;4978337;28;20121;-81
2022/08/21 04:37:15;;;;;;;7.57;4.03;;;14.80;97.80;;;;;;4959119;28;20137;-81
2022/08/21 04:39:40;;;;;;;6.70;3.95;;;14.70;97.40;;;;;;4969254;28;20090;-81
2022/08/21 04:42:06;;;;;;;6.25;4.28;;;14.70;97.30;;;;;;4988784;28;20445;-81
2022/08/21 04:44:32;;;;;;;7.78;4.35;;;14.90;97.60;;;;;;5004847;28;20424;-81
2022/08/21 04:46:57;;;;;;;7.60;3.22;;;15.00;98.30;;;;;;4977534;28;20374;-81
2022/08/21 04:49:23;;;;;;;6.00;3.88;;;14.90;97.30;;;;;;4976045;28;20038;-81
2022/08/21 04:51:49;;;;;;;6.70;3.95;;;14.70;97.40;;;;;;4987628;28;20037;-81
2022/08/21 04:54:20;;;;;;;4.05;3.33;;;14.50;97.70;;;;;;4976934;28;20061;-82
2022/08/21 04:56:52;;;;;;;6.38;3.78;;;14.50;97.60;;;;;;4974807;28;20130;-81
2022/08/21 04:59:22;;;;;;;4.25;3.60;;;14.50;97.80;;;;;;4973523;28;20555;-81
2022/08/21 05:01:48;;;;;;;3.95;3.30;;;14.70;97.80;;;;;;4985108;28;20308;-82
2022/08/21 05:04:15;;;;;;;8.60;4.43;;;14.80;97.60;;;;;;4972665;28;20037;-82
2022/08/21 05:06:42;;;;;;;5.78;4.03;;;14.70;97.60;;;;;;4955560;28;20053;-82
2022/08/21 05:09:09;;;;;;;10.13;4.90;;;14.70;98.00;;;;;;4970908;28;20048;-82
2022/08/21 05:11:34;;;;;;;6.88;4.63;;;14.90;97.40;;;;;;4960038;28;20030;-82
2022/08/21 05:14:00;;;;;;;8.68;4.32;;;14.90;97.60;;;;;;4974718;28;20375;-82
2022/08/21 05:16:26;;;;;;;8.40;4.47;;;14.90;97.60;;;;;;4974229;28;20038;-82
2022/08/21 05:18:52;;;;;;;11.20;4.15;;;14.90;97.40;;;;;;4975383;28;20048;-82
2022/08/21 05:21:17;;;;;;;7.90;4.80;;;14.90;98.50;;;;;;4973619;28;20034;-82
2022/08/21 05:23:43;;;;;;;8.68;5.72;;;15.00;98.20;;;;;;4969861;28;20042;-82
2022/08/21 05:26:08;;;;;;;8.43;5.70;;;15.20;97.20;;;;;;4984792;28;20065;-82
2022/08/21 05:28:34;;;;;;;12.07;5.97;;;15.20;97.80;;;;;;4974900;28;20042;-82
2022/08/21 05:31:00;;;;;;;8.07;4.70;;;15.10;98.00;;;;;;4989042;28;20488;-82
2022/08/21 05:33:25;;;;;;;8.18;6.72;;;15.10;97.80;;;;;;4984275;28;20371;-82
2022/08/21 05:35:52;;;;;;;11.50;7.57;;;15.20;99.20;;;;;;4985366;28;20105;-83
2022/08/21 05:38:18;;;;;;;10.98;7.78;;;15.10;99.00;;;;;;4990346;28;20026;-83
2022/08/21 05:40:43;;;;;;;13.95;7.78;;;15.30;99.90;;;;;;4960779;28;20392;-83
2022/08/21 05:43:09;;;;;;;12.43;7.70;;;15.40;99.90;;;;;;4970509;28;20045;-83
2022/08/21 05:45:35;;;;;;;14.32;8.32;;;15.50;98.90;;;;;;4972596;28;20508;-82
2022/08/21 05:48:07;;;;;;;9.60;8.15;;;15.50;99.90;;;;;;4973596;28;20041;-83
2022/08/21 05:50:33;;;;;;;11.57;7.50;;;15.60;99.90;;;;;;4975643;28;20113;-81
2022/08/21 05:52:58;;;;;;;8.57;5.93;;;15.70;99.50;;;;;;4957497;28;20229;-83
2022/08/21 05:55:24;;;;;;;9.70;6.28;;;15.90;98.20;;;;;;4987323;28;20066;-83
2022/08/21 05:57:49;;;;;;;13.25;8.40;;;16.00;98.50;;;;;;4952312;28;20034;-82
2022/08/21 06:00:16;;;;;;;17.95;9.15;;;16.10;97.80;;;;;;4970532;28;20022;-83
2022/08/21 06:02:42;;;;;;;8.02;5.40;;;16.20;99.50;;;;;;4973080;28;20122;-82
2022/08/21 06:05:07;;;;;;;16.20;8.75;;;16.30;98.80;;;;;;4973469;28;20097;-82
2022/08/21 06:07:33;;;;;;;19.58;9.68;;;16.40;99.50;;;;;;4966177;28;20026;-82
2022/08/21 06:09:59;;;;;;;14.88;6.80;;;16.50;98.40;;;;;;4974245;28;20089;-83
2022/08/21 06:12:25;;;;;;;15.45;9.27;;;16.70;97.40;;;;;;4975078;28;20046;-83
2022/08/21 06:14:51;;;;;;;18.08;6.85;;;16.80;99.00;;;;;;4960006;28;20029;-82
2022/08/21 06:17:17;;;;;;;7.55;5.95;;;16.90;97.70;;;;;;4983044;28;20034;-82
2022/08/21 06:19:42;;;;;;;12.38;7.55;;;17.00;97.60;;;;;;4982079;28;20041;-82
2022/08/21 06:22:08;;;;;;;17.33;7.47;;;17.10;98.20;;;;;;4975075;28;20199;-82
2022/08/21 06:24:34;;;;;;;10.85;6.57;;;17.20;97.10;;;;;;4974174;28;20049;-81
2022/08/21 06:27:07;;;;;;;9.95;7.28;;;17.40;97.60;;;;;;4956870;28;20026;-82
2022/08/21 06:29:33;;;;;;;14.35;8.23;;;17.50;98.70;;;;;;4985737;28;20477;-81
2022/08/21 06:31:58;;;;;;;11.82;8.38;;;17.60;97.40;;;;;;4977452;28;20041;-81
2022/08/21 06:34:24;;;;;;;10.35;6.43;;;17.70;98.20;;;;;;4975385;28;20033;-81
2022/08/21 06:36:49;;;;;;;11.10;6.43;;;17.80;97.50;;;;;;4986257;28;20065;-82
2022/08/21 06:39:15;;;;;;;16.55;7.97;;;17.90;97.70;;;;;;4976350;28;20026;-82
2022/08/21 06:41:40;;;;;;;11.45;7.47;;;18.00;97.70;;;;;;4988029;28;20076;-82
2022/08/21 06:44:06;;;;;;;16.05;7.22;;;18.10;97.40;;;;;;4958810;28;20034;-82
2022/08/21 06:46:31;;;;;;;8.57;5.50;;;18.30;97.20;;;;;;4974924;28;20033;-83
2022/08/21 06:48:57;;;;;;;11.02;5.60;;;18.40;96.80;;;;;;4979384;28;20079;-82
2022/08/21 06:51:23;;;;;;;10.50;4.97;;;18.50;96.40;;;;;;4988033;28;20041;-82
2022/08/21 06:53:49;;;;;;;12.68;6.22;;;18.60;96.50;;;;;;4970931;28;20109;-83
2022/08/21 06:56:15;;;;;;;13.85;6.65;;;18.70;96.10;;;;;;4973041;28;20413;-82
2022/08/21 06:58:40;;;;;;;12.65;5.53;;;18.80;96.20;;;;;;4961395;28;20449;-83
2022/08/21 07:01:06;;;;;;;9.25;5.15;;;18.90;95.70;;;;;;4974998;28;20045;-83
2022/08/21 07:03:33;;;;;;;17.02;7.22;;;19.00;95.40;;;;;;4970165;28;20423;-84
2022/08/21 07:05:59;;;;;;;11.93;5.55;;;19.10;95.40;;;;;;4971971;28;20448;-83
2022/08/21 07:08:25;;;;;;;12.45;5.93;;;19.20;94.90;;;;;;4972873;28;20033;-82
2022/08/21 07:10:51;;;;;;;12.95;6.90;;;19.30;94.70;;;;;;4971735;28;20038;-83
2022/08/21 07:13:17;;;;;;;10.00;6.57;;;19.30;94.30;;;;;;4983776;28;20528;-83
2022/08/21 07:15:43;;;;;;;12.68;5.22;;;19.40;93.90;;;;;;4981947;28;20065;-83
2022/08/21 07:18:08;;;;;;;11.55;6.43;;;19.50;94.00;;;;;;4984376;28;20030;-83
2022/08/21 07:20:34;;;;;;;11.60;6.03;;;19.60;93.90;;;;;;4949580;28;20096;-82
2022/08/21 07:23:02;;;;;;;8.02;5.22;;;19.80;93.80;;;;;;4957035;28;20026;-83
2022/08/21 07:25:28;;;;;;;10.70;5.05;;;19.90;93.60;;;;;;4962994;28;20589;-83
2022/08/21 07:27:53;;;;;;;9.23;4.55;;;20.10;93.10;;;;;;4969619;28;20159;-83
2022/08/21 07:30:19;;;;;;;13.07;4.90;;;20.00;93.20;;;;;;4982892;28;20022;-83
2022/08/21 07:32:45;;;;;;;9.63;4.68;;;20.20;92.80;;;;;;4966834;28;20026;-82
2022/08/21 07:35:10;;;;;;;12.80;4.43;;;20.30;92.80;;;;;;4971163;28;20045;-82
2022/08/21 07:37:36;;;;;;;19.65;4.93;;;20.40;92.80;;;;;;4972218;28;20026;-82
2022/08/21 07:40:02;;;;;;;8.70;4.40;;;20.70;92.50;;;;;;4970845;28;20042;-83
2022/08/21 07:42:27;;;;;;;13.25;4.13;;;20.90;92.40;;;;;;4982197;28;20029;-82
2022/08/21 07:44:55;;;;;;;7.90;4.10;;;21.00;91.90;;;;;;4985960;28;20460;-82
2022/08/21 07:47:20;;;;;;;10.70;3.97;;;21.00;91.50;;;;;;4966516;28;20172;-83
2022/08/21 07:49:48;;;;;;;10.25;3.38;;;21.20;92.10;;;;;;4973939;28;20121;-82
2022/08/21 07:52:14;;;;;;;6.25;3.30;;;21.30;91.80;;;;;;4960724;28;20467;-82
2022/08/21 07:54:43;;;;;;;6.65;3.63;;;21.50;91.60;;;;;;4958303;28;20113;-82
2022/08/21 07:57:09;;;;;;;5.95;3.13;;;21.70;90.70;;;;;;4948721;28;20042;-83
2022/08/21 07:59:34;;;;;;;7.40;3.15;;;21.80;90.70;;;;;;4949813;28;20100;-82
2022/08/21 08:02:00;;;;;;;7.63;3.70;;;22.00;90.50;;;;;;4977332;28;20120;-82
2022/08/21 08:04:25;;;;;;;6.07;3.22;;;22.10;90.30;;;;;;4957879;28;20037;-84
2022/08/21 08:06:51;;;;;;;6.10;3.78;;;22.20;88.50;;;;;;4968011;28;20065;-82
2022/08/21 08:09:17;;;;;;;7.18;3.08;;;22.40;87.70;;;;;;4964385;28;20087;-82
2022/08/21 08:11:45;;;;;;;8.32;3.38;;;22.50;87.20;;;;;;4960512;28;20037;-82
2022/08/21 08:14:10;;;;;;;14.23;3.22;;;22.50;86.40;;;;;;4957962;28;20033;-83
2022/08/21 08:16:36;;;;;;;8.80;3.60;;;22.60;86.60;;;;;;4967510;28;20390;-81
2022/08/21 08:19:03;;;;;;;7.80;3.53;;;22.70;86.80;;;;;;4955249;28;20033;-81
2022/08/21 08:21:28;;;;;;;3.25;1.63;;;22.70;87.00;;;;;;4983159;28;20030;-82
2022/08/21 08:23:54;;;;;;;11.10;3.17;;;22.70;86.50;;;;;;4985501;28;20040;-82
2022/08/21 08:26:19;;;;;;;7.38;2.97;;;22.80;86.30;;;;;;4953792;28;20079;-82
2022/08/21 08:28:47;;;;;;;9.07;3.30;;;22.90;85.50;;;;;;4966798;28;20068;-82
2022/08/21 08:31:13;;;;;;;5.93;2.90;;;23.10;84.90;;;;;;4979546;28;20031;-82
2022/08/21 08:33:38;;;;;;;11.90;2.95;;;23.10;85.20;;;;;;4966280;28;20030;-82
2022/08/21 08:36:04;;;;;;;6.35;2.50;;;23.30;82.10;;;;;;4957741;28;20389;-82
2022/08/21 08:38:29;;;;;;;6.60;3.40;;;23.40;83.60;;;;;;4956792;28;20092;-82
2022/08/21 08:41:22;;;;;;;9.35;2.33;;;23.30;83.50;;;;;;4971766;28;20027;-82
2022/08/21 08:43:50;;;;;;;8.90;2.53;;;23.70;82.50;;;;;;4993551;28;20421;-82
2022/08/21 08:46:17;;;;;;;6.70;2.42;;;23.90;79.90;;;;;;4972962;28;20034;-82
2022/08/21 08:49:06;;;;;;;6.47;2.33;;;23.80;82.10;;;;;;4962588;28;20095;-82
2022/08/21 08:51:42;;;;;;;6.88;2.28;;;24.00;81.80;;;;;;4973039;28;20576;-83
2022/08/21 08:54:12;;;;;;;7.65;2.85;;;24.30;79.80;;;;;;4977872;28;20515;-82
2022/08/21 08:56:38;;;;;;;3.17;1.85;;;24.30;81.00;;;;;;4961415;28;20074;-83
2022/08/21 08:59:20;;;;;;;4.75;1.90;;;24.30;80.50;;;;;;4957791;28;20398;-83
2022/08/21 09:01:46;;;;;;;7.03;1.70;;;24.50;80.40;;;;;;4983552;28;20030;-83
2022/08/21 09:04:13;;;;;;;9.07;2.58;;;24.50;81.10;;;;;;4970508;28;20040;-83
2022/08/21 09:06:41;;;;;;;5.65;1.75;;;24.70;80.30;;;;;;4987627;28;20113;-83
2022/08/21 09:09:29;;;;;;;8.27;2.65;;;25.10;79.00;;;;;;5006627;28;20371;-83
2022/08/21 09:12:28;;;;;;;5.28;1.73;;;25.30;75.90;;;;;;4990659;28;20026;-82
2022/08/21 09:15:21;;;;;;;8.25;2.30;;;25.30;76.60;;;;;;4979086;28;20043;-83
2022/08/21 09:18:11;;;;;;;6.13;1.98;;;25.80;73.50;;;;;;4985057;28;20034;-83
2022/08/21 09:20:47;;;;;;;4.18;1.60;;;26.00;73.60;;;;;;4975066;28;20031;-82
2022/08/21 09:23:31;;;;;;;;;;;26.10;74.60;;;;;;4973920;28;20479;-84
2022/08/21 09:26:17;;;;;;;3.72;1.23;;;26.20;71.70;;;;;;4987583;28;19914;-82
2022/08/21 09:28:43;;;;;;;4.57;2.13;;;26.00;73.40;;;;;;4973909;28;20593;-83
2022/08/21 09:31:29;;;;;;;4.20;1.42;;;26.20;71.40;;;;;;4958671;28;20066;-82
2022/08/21 09:33:58;;;;;;;;;;;26.20;71.10;;;;;;4976792;28;20420;-82
2022/08/21 09:36:45;;;;;;;3.75;1.55;;;26.00;71.90;;;;;;4967986;28;19948;-82
2022/08/21 09:39:11;;;;;;;4.70;1.40;;;26.00;72.80;;;;;;4969294;28;20505;-82
2022/08/21 09:41:37;;;;;;;6.38;2.15;;;26.20;70.80;;;;;;4971031;28;20036;-82
2022/08/21 09:44:04;;;;;;;4.00;1.67;;;26.20;71.40;;;;;;4957298;28;20026;-82
2022/08/21 09:46:30;;;;;;;5.22;1.83;;;26.10;71.00;;;;;;4969522;28;20606;-81
2022/08/21 09:48:58;;;;;;;4.65;1.70;;;26.30;71.30;;;;;;4957842;28;20072;-82
2022/08/21 09:51:24;;;;;;;3.80;1.35;;;26.40;69.30;;;;;;4969498;28;20081;-82
2022/08/21 09:54:05;;;;;;;4.65;1.70;;;26.60;69.80;;;;;;4974997;28;20038;-82
2022/08/21 09:59:40;;;;;;;4.70;1.30;;;26.70;68.40;;;;;;4988013;28;20048;-83
2022/08/21 10:02:27;;;;;;;4.43;1.30;;;26.90;68.00;;;;;;4983458;28;20461;-85
2022/08/21 10:05:01;;;;;;;3.47;1.10;;;27.10;66.90;;;;;;4988669;28;20037;-84
2022/08/21 10:07:29;;;;;;;4.70;1.58;;;27.20;66.40;;;;;;4969772;28;20026;-85
2022/08/21 10:10:09;;;;;;;3.80;1.00;;;27.40;63.70;;;;;;4977449;28;20080;-85
2022/08/21 10:12:46;;;;;;;2.38;1.02;;;27.30;64.50;;;;;;4973204;28;20033;-85
2022/08/21 10:15:26;;;;;;;4.15;1.30;;;27.20;64.70;;;;;;4989639;28;20111;-85
2022/08/21 10:17:55;;;;;;;4.82;1.30;;;27.30;62.70;;;;;;4972836;28;20378;-85
2022/08/21 10:20:23;;;;;;;3.45;1.35;;;27.40;63.60;;;;;;4973968;28;20931;-85
2022/08/21 10:22:52;;;;;;;3.35;1.25;;;27.30;64.20;;;;;;4974996;28;20035;-85
2022/08/21 10:25:21;;;;;;;4.22;1.58;;;27.80;61.00;;;;;;4990435;28;20062;-85
2022/08/21 10:28:06;;;;;;;4.97;2.00;;;28.20;59.40;;;;;;4972893;28;20406;-81
2022/08/21 10:31:06;;;;;;;3.65;1.05;;;27.90;62.70;;;;;;4973970;28;20026;-82
2022/08/21 10:33:57;;;;;;;4.85;1.30;;;28.10;61.80;;;;;;4973308;28;20511;-81
2022/08/21 10:36:27;;;;;;;4.95;1.40;;;28.80;57.90;;;;;;4989462;28;20494;-81
2022/08/21 10:38:55;;;;;;;5.22;1.50;;;28.60;59.80;;;;;;4972952;28;20165;-81
2022/08/21 10:41:48;;;;;;;3.58;1.10;;;28.80;59.80;;;;;;4966031;28;20031;-82
2022/08/21 10:44:26;;;;;;;2.50;1.08;;;29.10;58.60;;;;;;4995406;28;20037;-82
2022/08/21 10:47:11;;;;;;;4.85;1.35;;;29.00;60.00;;;;;;4954709;28;20142;-83
2022/08/21 10:49:39;;;;;;;4.28;1.08;;;28.90;59.30;;;;;;4997997;28;20125;-82
2022/08/21 10:52:28;;;;;;;4.25;1.30;;;28.80;61.40;;;;;;4972038;28;20522;-81
2022/08/21 10:55:03;;;;;;;4.63;1.50;;;28.90;61.00;;;;;;4964424;28;20071;-81
2022/08/21 10:58:06;;;;;;;4.60;1.23;;;28.70;61.70;;;;;;4970683;28;20038;-81
2022/08/21 11:00:42;;;;;;;4.47;1.33;;;29.60;59.20;;;;;;4998526;28;20278;-81
2022/08/21 11:03:12;;;;;;;2.53;1.08;;;30.00;57.30;;;;;;4964796;28;20092;-82
2022/08/21 11:05:45;;;;;;;4.40;1.20;;;30.30;57.30;;;;;;4968846;28;20042;-82
2022/08/21 11:08:18;;;;;;;2.15;0.90;;;29.80;58.40;;;;;;4970967;28;20029;-82
2022/08/21 11:10:57;;;;;;;2.92;1.20;;;30.30;55.50;;;;;;4977928;28;20042;-82
2022/08/21 11:13:45;;;;;;;3.88;1.20;;;30.40;55.50;;;;;;4951967;28;20184;-83
2022/08/21 11:16:46;;;;;;;3.92;1.15;;;30.00;58.10;;;;;;4973917;28;20091;-81
2022/08/21 11:19:27;;;;;;;3.13;0.82;;;30.00;58.00;;;;;;4976966;28;20041;-82
2022/08/21 11:22:17;;;;;;;2.55;1.00;;;30.20;55.80;;;;;;4964030;28;20049;-83
2022/08/21 11:25:07;;;;;;;3.28;1.20;;;30.50;55.50;;;;;;4985852;28;20034;-81
2022/08/21 11:27:39;;;;;;;2.55;0.85;;;30.90;51.80;;;;;;4954514;28;20033;-84
2022/08/21 11:30:05;;;;;;;1.50;0.93;;;31.00;52.60;;;;;;4953183;28;20042;-82
2022/08/21 11:32:55;;;;;;;4.32;1.20;;;30.90;52.00;;;;;;4953718;28;20027;-82
2022/08/21 11:35:44;;;;;;;2.53;0.80;;;30.60;54.70;;;;;;4973298;28;20587;-83
2022/08/21 11:38:22;;;;;;;1.80;0.70;;;30.10;56.10;;;;;;4972121;28;20508;-82
2022/08/21 11:41:07;;;;;;;1.42;0.85;;;30.30;56.10;;;;;;4978763;28;20034;-82
2022/08/21 11:43:42;;;;;;;1.45;0.93;;;30.80;55.10;;;;;;4964559;28;20393;-81
2022/08/21 11:46:26;;;;;;;3.90;1.20;;;30.70;55.60;;;;;;4976826;28;20025;-81
2022/08/21 11:49:05;;;;;;;1.48;0.70;;;30.60;54.70;;;;;;4981986;28;20117;-82
2022/08/21 11:51:53;;;;;;;1.77;0.80;;;31.20;54.20;;;;;;4988366;28;20107;-81
2022/08/21 11:54:25;;;;;;;3.05;1.08;;;31.20;53.50;;;;;;4908238;28;20385;-81
2022/08/21 11:56:59;;;;;;;2.95;0.80;;;31.20;53.90;;;;;;4989028;28;20030;-81
2022/08/21 11:59:32;;;;;;;2.30;1.02;;;31.00;53.60;;;;;;4954633;28;20497;-81
2022/08/21 12:01:58;;;;;;;2.33;1.00;;;31.00;54.30;;;;;;4957193;28;20036;-81
2022/08/21 12:04:32;;;;;;;2.15;0.90;;;31.10;54.60;;;;;;4955282;28;20042;-82
2022/08/21 12:07:18;;;;;;;3.28;1.00;;;31.10;53.60;;;;;;4982804;28;20034;-81
2022/08/21 12:09:54;;;;;;;4.20;0.93;;;31.10;54.30;;;;;;4968437;28;20030;-82
2022/08/21 12:12:28;;;;;;;5.60;0.90;;;31.30;52.80;;;;;;4944596;28;20069;-81
2022/08/21 12:15:04;;;;;;;2.45;0.90;;;31.50;53.10;;;;;;4961427;28;20033;-80
2022/08/21 12:17:38;;;;;;;1.77;0.95;;;31.40;52.10;;;;;;4971536;28;20045;-79
2022/08/21 12:20:35;;;;;;;2.22;1.00;;;31.30;51.60;;;;;;4974094;28;20030;-79
2022/08/21 12:23:10;;;;;;;2.35;0.90;;;31.20;52.10;;;;;;4972770;28;20038;-80
2022/08/21 12:25:41;;;;;;;3.70;1.67;;;30.90;50.60;;;;;;4990669;28;20033;-79
2022/08/21 12:28:09;;;;;;;3.53;0.90;;;31.10;51.90;;;;;;4990078;28;20030;-83
2022/08/21 12:30:37;;;;;;;2.03;0.90;;;31.20;52.30;;;;;;4970034;28;20034;-81
2022/08/21 12:33:18;;;;;;;3.45;0.90;;;31.10;52.40;;;;;;4970913;28;20076;-81
2022/08/21 12:35:44;;;;;;;2.15;0.90;;;30.90;52.00;;;;;;4631992;28;10000569;-81
2022/08/21 12:38:17;;;;;;;2.47;0.95;;;30.70;53.00;;;;;;4956160;28;20034;-82
2022/08/21 12:41:05;;;;;;;3.00;1.10;;;30.70;53.00;;;;;;4984308;28;20089;-84
2022/08/21 12:43:34;;;;;;;3.25;1.40;;;30.80;52.20;;;;;;4945704;28;20053;-83
2022/08/21 12:46:03;;;;;;;1.30;0.82;;;31.10;52.90;;;;;;4958147;28;20504;-82
2022/08/21 12:48:47;;;;;;;2.35;0.90;;;31.40;52.60;;;;;;4970832;28;20045;-83
2022/08/21 12:51:17;;;;;;;4.65;1.55;;;31.20;52.60;;;;;;4953976;28;20597;-83
2022/08/21 12:53:48;;;;;;;3.30;1.35;;;31.00;52.10;;;;;;4982847;28;20030;-83
2022/08/21 12:56:16;;;;;;;4.88;0.80;;;31.20;53.90;;;;;;4976127;28;20057;-82
2022/08/21 12:58:52;;;;;;;3.60;1.23;;;31.40;52.60;;;;;;4977206;28;20057;-83
2022/08/21 13:01:20;;;;;;;;;;;31.20;50.30;;;;;;4972149;28;20470;-82